EGGD

Bristol International Airport

Airport
ICAO code
EGGD
IATA Code
BRS
Summary
ICAO Region
EUR
ICAO Territory
Location

Lulsgate, North Somerset, England

Serving
Bristol
Elevation
622 ft
Coordinates
51° 22' 60" N , 2° 43' 4" W
KCC
Airport WX
Low Level Turbulence
Metar
Observation
EGGD 302020Z AUTO 20003KT 180V260 9999 NCD 04/03 Q1028
Station
Bristol / Lulsgate
Date/Time
2023-01-30 20:20:00
Wind direction
200°
Wind speed
03 kts
Lowest cloud amount
no clouds detected
Temperature
4°C
Dew point
3°C
Humidity
93%
QNH
1028 hPa
Weather condition
n/a

Description

Bristol Airport, located at Lulsgate in North Somerset, is an international airport serving the city of Bristol and the surrounding region. It was officially renamed Bristol International Airport in 1997.

Climatology

Temperate Marine climate/Oceanic climate (Köppen climate classification Cfb). Moderately cool summer and comparatively warm winter with a temperature range of only 14°C. Prevailing south-westerly winds from the Atlantic Ocean.

Runways

Designator Length Width Surface Rops
9/27 2011 46 ASP Yes/Yes

SKYbrary Partners:

Safety knowledge contributed by: